createdAt,value
2022-10-03T00:01:31.633Z,53.48
2022-10-03T00:04:12.598Z,53.44
2022-10-03T00:06:51.623Z,53.63
2022-10-03T00:09:36.109Z,53.86
2022-10-03T00:12:22.062Z,53.97
2022-10-03T00:15:02.833Z,53.88
2022-10-03T00:17:47.756Z,53.93
2022-10-03T00:20:45.198Z,53.99
2022-10-03T00:23:21.896Z,54.12
2022-10-03T00:26:23.821Z,54.27
2022-10-03T00:29:05.966Z,54.24
2022-10-03T00:31:52.266Z,54.17
2022-10-03T00:34:32.084Z,54.41
2022-10-03T00:37:19.804Z,54.44
2022-10-03T00:40:13.558Z,54.56
2022-10-03T00:43:24.627Z,54.49
2022-10-03T00:46:23.996Z,54.50
2022-10-03T00:49:23.742Z,54.53
2022-10-03T00:52:10.310Z,54.42
2022-10-03T00:55:06.549Z,54.21
2022-10-03T00:57:51.470Z,54.17
2022-10-03T01:00:24.982Z,54.30
2022-10-03T01:03:30.161Z,54.43
2022-10-03T01:06:16.424Z,54.59
2022-10-03T01:09:04.114Z,54.50
2022-10-03T01:11:57.631Z,54.54
2022-10-03T01:14:45.987Z,54.44
2022-10-03T01:17:24.557Z,54.50
2022-10-03T01:20:17.041Z,54.60
2022-10-03T01:23:10.641Z,54.60
2022-10-03T01:25:44.184Z,55.05
2022-10-03T01:28:58.604Z,55.02
2022-10-03T01:31:36.073Z,54.97
2022-10-03T01:34:13.755Z,54.96
2022-10-03T01:36:55.095Z,55.05
2022-10-03T01:39:34.543Z,55.02
2022-10-03T01:42:10.229Z,54.86
2022-10-03T01:44:58.212Z,55.15
2022-10-03T01:47:38.426Z,55.03
2022-10-03T01:50:17.282Z,54.81
2022-10-03T01:52:55.046Z,54.83
2022-10-03T01:55:44.339Z,54.85
2022-10-03T01:58:22.369Z,54.71
2022-10-03T02:01:02.027Z,54.69
2022-10-03T02:03:39.783Z,54.56
2022-10-03T02:06:22.523Z,54.67
2022-10-03T02:09:00.986Z,54.72
2022-10-03T02:11:36.675Z,54.60
2022-10-03T02:14:22.947Z,54.90
2022-10-03T02:17:06.537Z,54.68
2022-10-03T02:19:44.243Z,54.82
2022-10-03T02:22:19.521Z,54.67
2022-10-03T02:24:55.647Z,54.70
2022-10-03T02:27:59.126Z,54.75
2022-10-03T02:30:49.827Z,54.75
2022-10-03T02:33:49.387Z,54.71
2022-10-03T02:36:40.758Z,54.57
2022-10-03T02:39:41.838Z,54.54
2022-10-03T02:42:51.782Z,54.52
2022-10-03T02:46:04.765Z,54.58
2022-10-03T02:48:58.034Z,54.59
2022-10-03T02:51:51.425Z,54.71
2022-10-03T02:54:44.823Z,54.60
2022-10-03T02:57:44.022Z,54.82
2022-10-03T03:00:22.008Z,54.77
2022-10-03T03:03:21.669Z,54.75
2022-10-03T03:06:29.335Z,54.80
2022-10-03T03:09:39.741Z,54.26
2022-10-03T03:12:28.858Z,54.41
2022-10-03T03:15:33.406Z,54.43
2022-10-03T03:18:11.327Z,54.22
2022-10-03T03:21:00.181Z,54.24
2022-10-03T03:24:02.880Z,54.31
2022-10-03T03:26:50.765Z,54.27
2022-10-03T03:29:34.639Z,54.30
2022-10-03T03:32:14.487Z,54.07
2022-10-03T03:34:55.970Z,54.17
2022-10-03T03:37:38.039Z,53.98
2022-10-03T03:40:29.701Z,54.24
2022-10-03T03:43:26.230Z,54.16
2022-10-03T03:46:08.424Z,54.13
2022-10-03T03:48:56.249Z,54.30
2022-10-03T03:51:36.175Z,54.24
2022-10-03T03:54:37.465Z,54.43
2022-10-03T03:57:26.843Z,54.22
2022-10-03T04:00:16.492Z,54.31
2022-10-03T04:03:03.376Z,54.38
2022-10-03T04:05:47.660Z,54.23
2022-10-03T04:08:36.522Z,54.49
2022-10-03T04:11:24.214Z,54.16
2022-10-03T04:14:26.039Z,54.32
2022-10-03T04:17:21.220Z,54.01
2022-10-03T04:20:09.929Z,54.20
2022-10-03T04:22:55.538Z,54.20
2022-10-03T04:25:37.890Z,54.24
2022-10-03T04:28:40.160Z,54.23
2022-10-03T04:31:27.714Z,54.41
2022-10-03T04:34:11.823Z,54.19
2022-10-03T04:37:09.230Z,54.25
2022-10-03T04:39:47.445Z,54.42
2022-10-03T04:42:30.030Z,54.27
2022-10-03T04:45:11.039Z,54.61
2022-10-03T04:47:50.895Z,54.52
2022-10-03T04:50:31.315Z,54.42
2022-10-03T04:53:20.812Z,54.64
2022-10-03T04:55:54.139Z,54.38
2022-10-03T04:58:38.921Z,54.59
2022-10-03T05:01:18.907Z,54.44
2022-10-03T05:04:05.089Z,54.52
2022-10-03T05:06:46.680Z,54.49
2022-10-03T05:09:27.676Z,54.51
2022-10-03T05:12:06.319Z,54.51
2022-10-03T05:14:59.131Z,54.45
2022-10-03T05:17:39.154Z,54.44
2022-10-03T05:20:42.718Z,54.59
2022-10-03T05:23:24.478Z,54.54
2022-10-03T05:26:24.714Z,54.57
2022-10-03T05:29:02.675Z,54.33
2022-10-03T05:31:52.085Z,54.39
2022-10-03T05:34:33.166Z,54.37
2022-10-03T05:37:38.272Z,54.53
2022-10-03T05:40:19.111Z,54.47
2022-10-03T05:43:07.055Z,54.55
2022-10-03T05:45:50.846Z,54.66
2022-10-03T05:48:35.920Z,54.41
2022-10-03T05:51:24.166Z,54.18
2022-10-03T05:54:17.126Z,54.71
2022-10-03T05:57:09.396Z,54.21
2022-10-03T05:59:59.309Z,54.35
2022-10-03T06:02:55.370Z,54.26
2022-10-03T06:05:37.092Z,53.86
2022-10-03T06:08:45.787Z,54.21
2022-10-03T06:11:40.640Z,53.87
2022-10-03T06:14:34.909Z,53.96
2022-10-03T06:17:25.916Z,53.65
2022-10-03T06:20:05.766Z,53.92
2022-10-03T06:23:06.284Z,53.94
2022-10-03T06:26:07.082Z,53.80
2022-10-03T06:29:15.266Z,53.85
2022-10-03T06:32:13.622Z,53.61
2022-10-03T06:35:24.876Z,53.56
2022-10-03T06:38:28.325Z,53.42
2022-10-03T06:41:33.828Z,53.49
2022-10-03T06:44:24.203Z,53.35
2022-10-03T06:47:19.525Z,53.35
2022-10-03T06:50:27.936Z,53.24
2022-10-03T06:53:20.672Z,53.17
2022-10-03T06:56:40.671Z,53.08
2022-10-03T06:59:33.576Z,52.92
2022-10-03T07:02:48.374Z,53.07
2022-10-03T07:05:47.254Z,53.13
2022-10-03T07:08:53.378Z,52.78
2022-10-03T07:11:44.626Z,52.47
2022-10-03T07:14:50.360Z,52.15
2022-10-03T07:17:55.211Z,52.19
2022-10-03T07:20:58.628Z,52.09
2022-10-03T07:23:56.762Z,51.92
2022-10-03T07:26:47.771Z,52.01
2022-10-03T07:29:32.466Z,52.17
2022-10-03T07:32:20.429Z,52.25
2022-10-03T07:35:17.330Z,52.58
2022-10-03T07:38:42.577Z,52.50
2022-10-03T07:41:32.046Z,52.10
2022-10-03T07:44:35.990Z,52.40
2022-10-03T07:48:02.497Z,52.04
2022-10-03T07:51:16.058Z,51.94
2022-10-03T07:54:07.480Z,52.17
2022-10-03T07:57:10.015Z,52.08
2022-10-03T08:00:05.877Z,51.86
2022-10-03T08:03:15.559Z,51.65
2022-10-03T08:06:26.707Z,51.87
2022-10-03T08:09:39.352Z,51.63
2022-10-03T08:12:34.318Z,51.62
2022-10-03T08:15:13.097Z,51.44
2022-10-03T08:18:21.531Z,51.37
2022-10-03T08:20:55.906Z,51.00
2022-10-03T08:23:54.603Z,51.12
2022-10-03T08:26:39.715Z,50.24
2022-10-03T08:29:30.013Z,49.29
2022-10-03T08:32:50.181Z,48.75
2022-10-03T08:47:27.966Z,47.47
2022-10-03T08:50:30.589Z,47.87
2022-10-03T08:53:31.491Z,48.10
2022-10-03T08:56:08.190Z,48.40
2022-10-03T08:59:04.960Z,48.76
2022-10-03T09:01:50.751Z,49.33
2022-10-03T09:04:50.752Z,48.85
2022-10-03T09:07:48.069Z,47.51
2022-10-03T09:10:38.085Z,46.55
2022-10-03T09:13:40.717Z,45.30
2022-10-03T09:16:38.491Z,44.42
2022-10-03T09:19:37.148Z,44.66
2022-10-03T09:22:43.477Z,44.77
2022-10-03T09:25:32.426Z,44.70
2022-10-03T09:28:33.413Z,44.69
2022-10-03T09:31:32.440Z,45.27
2022-10-03T09:34:29.618Z,45.80
2022-10-03T09:37:26.050Z,44.33
2022-10-03T09:40:32.128Z,42.82
2022-10-03T09:43:20.199Z,40.38
2022-10-03T09:46:20.799Z,38.29
2022-10-03T09:55:34.144Z,37.29
2022-10-03T09:58:29.712Z,37.98
2022-10-03T10:01:17.702Z,38.39
2022-10-03T10:04:53.026Z,39.48
2022-10-03T10:07:47.060Z,41.03
2022-10-03T10:10:55.869Z,41.78
2022-10-03T10:14:10.779Z,42.48
2022-10-03T10:17:17.759Z,41.29
2022-10-03T10:20:05.230Z,40.29
2022-10-03T10:23:25.202Z,38.81
2022-10-03T10:26:45.442Z,37.96
2022-10-03T10:29:58.852Z,38.34
2022-10-03T10:32:59.742Z,37.75
2022-10-03T10:36:13.192Z,38.08
2022-10-03T10:39:14.276Z,38.68
2022-10-03T10:42:31.586Z,38.45
2022-10-03T10:45:39.140Z,38.53
2022-10-03T10:48:47.549Z,37.74
2022-10-03T10:51:43.879Z,36.74
2022-10-03T10:54:51.290Z,36.68
2022-10-03T10:57:57.951Z,35.95
2022-10-03T11:00:43.041Z,35.90
2022-10-03T11:03:42.675Z,35.41
2022-10-03T11:06:55.301Z,35.42
2022-10-03T11:09:52.578Z,35.03
2022-10-03T11:12:56.440Z,33.61
2022-10-03T11:16:06.764Z,31.99
2022-10-03T11:19:06.636Z,31.67
2022-10-03T11:22:09.048Z,31.17
2022-10-03T11:25:08.877Z,31.51
2022-10-03T11:28:12.340Z,33.30
2022-10-03T11:31:19.548Z,34.54
2022-10-03T11:34:37.186Z,36.24
2022-10-03T11:37:25.340Z,37.34
2022-10-03T11:40:07.762Z,38.50
2022-10-03T11:42:53.289Z,38.78
2022-10-03T11:45:33.265Z,36.21
2022-10-03T11:48:26.259Z,34.93
2022-10-03T11:50:57.892Z,33.85
2022-10-03T11:53:44.195Z,34.26
2022-10-03T11:56:35.686Z,33.31
2022-10-03T11:59:28.855Z,33.24
2022-10-03T12:02:20.208Z,35.02
2022-10-03T12:04:59.052Z,33.11
2022-10-03T12:07:59.462Z,31.33
2022-10-03T12:10:51.371Z,30.63
2022-10-03T12:13:27.472Z,29.40
2022-10-03T12:15:59.711Z,28.43
2022-10-03T12:18:51.647Z,27.72
2022-10-03T12:21:26.767Z,26.19
2022-10-03T12:24:05.136Z,24.71
2022-10-03T12:26:55.413Z,26.19
2022-10-03T12:29:29.044Z,27.96
2022-10-03T12:32:17.832Z,29.83
2022-10-03T12:34:55.218Z,29.86
2022-10-03T12:37:39.077Z,29.64
2022-10-03T12:40:18.650Z,29.71
2022-10-03T12:43:03.825Z,29.30
2022-10-03T12:45:40.156Z,30.17
2022-10-03T12:48:30.441Z,32.08
2022-10-03T12:51:06.190Z,34.21
2022-10-03T12:53:51.640Z,35.50
2022-10-03T12:56:29.477Z,36.49
2022-10-03T12:59:16.857Z,37.14
2022-10-03T13:02:17.773Z,37.69
2022-10-03T13:05:01.087Z,38.49
2022-10-03T13:07:41.468Z,38.82
2022-10-03T13:10:26.633Z,38.50
2022-10-03T13:13:00.914Z,37.25
2022-10-03T13:15:47.480Z,37.54
2022-10-03T13:18:39.044Z,37.78
2022-10-03T13:21:40.697Z,37.40
2022-10-03T13:24:07.315Z,37.52
2022-10-03T13:26:52.996Z,38.50
2022-10-03T13:29:30.881Z,38.98
2022-10-03T13:32:21.984Z,39.54
2022-10-03T13:35:24.958Z,39.01
2022-10-03T13:38:39.766Z,39.57
2022-10-03T13:41:19.021Z,39.96
2022-10-03T13:43:59.350Z,40.59
2022-10-03T13:46:37.485Z,41.05
2022-10-03T13:49:19.504Z,40.91
2022-10-03T13:51:58.277Z,41.45
2022-10-03T13:54:49.533Z,41.59
2022-10-03T13:57:26.748Z,41.42
2022-10-03T14:00:08.380Z,41.67
2022-10-03T14:03:08.927Z,41.81
2022-10-03T14:05:59.475Z,41.63
2022-10-03T14:08:50.886Z,41.88
2022-10-03T14:11:28.685Z,42.00
2022-10-03T14:14:27.242Z,42.12
2022-10-03T14:17:04.446Z,41.97
2022-10-03T14:19:47.161Z,41.34
2022-10-03T14:22:42.342Z,40.87
2022-10-03T14:25:26.145Z,41.10
2022-10-03T14:28:00.198Z,41.12
2022-10-03T14:30:49.238Z,41.25
2022-10-03T14:33:38.864Z,41.30
2022-10-03T14:36:26.394Z,41.88
2022-10-03T14:39:23.204Z,41.70
2022-10-03T14:42:31.381Z,41.45
2022-10-03T14:45:07.924Z,41.71
2022-10-03T14:47:40.623Z,41.71
2022-10-03T14:50:19.101Z,42.12
2022-10-03T14:52:54.643Z,42.27
2022-10-03T14:55:32.314Z,42.54
2022-10-03T14:58:10.789Z,42.65
2022-10-03T15:00:46.192Z,43.10
2022-10-03T15:03:33.918Z,43.04
2022-10-03T15:06:21.994Z,43.02
2022-10-03T15:08:56.126Z,42.92
2022-10-03T15:11:32.885Z,43.21
2022-10-03T15:14:06.382Z,42.82
2022-10-03T15:16:39.025Z,42.77
2022-10-03T15:19:17.417Z,42.66
2022-10-03T15:21:49.166Z,42.71
2022-10-03T15:24:25.473Z,42.66
2022-10-03T15:27:05.838Z,42.88
2022-10-03T15:29:37.746Z,43.24
2022-10-03T15:32:11.164Z,42.60
2022-10-03T15:34:48.642Z,42.80
2022-10-03T15:37:22.773Z,42.86
2022-10-03T15:39:54.545Z,42.95
2022-10-03T15:42:34.674Z,42.87
2022-10-03T15:45:07.750Z,43.01
2022-10-03T15:47:40.339Z,43.22
2022-10-03T15:50:19.926Z,43.20
2022-10-03T15:52:53.409Z,43.49
2022-10-03T15:55:28.119Z,43.58
2022-10-03T15:58:06.907Z,43.99
2022-10-03T16:00:38.955Z,43.95
2022-10-03T16:03:16.706Z,44.83
2022-10-03T16:05:58.440Z,44.98
2022-10-03T16:08:32.271Z,45.41
2022-10-03T16:11:10.767Z,46.04
2022-10-03T16:13:47.930Z,46.36
2022-10-03T16:16:23.808Z,46.40
2022-10-03T16:18:57.705Z,47.42
2022-10-03T16:21:42.434Z,47.39
2022-10-03T16:24:22.431Z,47.21
2022-10-03T16:26:57.551Z,47.60
2022-10-03T16:29:33.686Z,47.21
2022-10-03T16:32:08.791Z,47.53
2022-10-03T16:34:44.400Z,47.47
2022-10-03T16:37:20.389Z,47.97
2022-10-03T16:39:57.964Z,47.75
2022-10-03T16:42:30.171Z,47.67
2022-10-03T16:45:02.897Z,47.42
2022-10-03T16:47:38.026Z,47.83
2022-10-03T16:50:26.648Z,47.44
2022-10-03T16:53:01.723Z,47.29
2022-10-03T16:55:34.418Z,46.94
2022-10-03T16:58:14.047Z,47.10
2022-10-03T17:01:15.358Z,47.14
2022-10-03T17:03:50.336Z,47.20
2022-10-03T17:06:25.025Z,47.05
2022-10-03T17:08:58.110Z,46.98
2022-10-03T17:11:29.183Z,47.24
2022-10-03T17:14:04.734Z,46.83
2022-10-03T17:16:45.124Z,46.94
2022-10-03T17:19:24.052Z,46.98
2022-10-03T17:21:56.876Z,46.86
2022-10-03T17:24:45.589Z,46.80
2022-10-03T17:27:29.547Z,47.43
2022-10-03T17:30:04.103Z,47.14
2022-10-03T17:32:42.404Z,46.97
2022-10-03T17:35:20.883Z,47.17
2022-10-03T17:38:19.530Z,47.53
2022-10-03T17:40:59.509Z,47.31
2022-10-03T17:43:37.177Z,47.55
2022-10-03T17:46:15.012Z,47.30
2022-10-03T17:48:55.525Z,47.43
2022-10-03T17:51:39.742Z,47.19
2022-10-03T17:54:16.599Z,47.46
2022-10-03T17:56:53.236Z,47.32
2022-10-03T17:59:30.045Z,47.14
2022-10-03T18:02:07.135Z,47.32
2022-10-03T18:04:44.576Z,47.38
2022-10-03T18:07:18.528Z,47.38
2022-10-03T18:09:50.936Z,47.60
2022-10-03T18:12:30.209Z,47.32
2022-10-03T18:15:27.197Z,47.55
2022-10-03T18:18:27.383Z,47.48
2022-10-03T18:21:06.197Z,47.67
2022-10-03T18:23:54.897Z,47.50
2022-10-03T18:26:30.488Z,47.64
2022-10-03T18:29:14.074Z,47.65
2022-10-03T18:31:48.154Z,47.47
2022-10-03T18:34:22.743Z,47.85
2022-10-03T18:36:58.076Z,47.79
2022-10-03T18:39:31.009Z,47.83
2022-10-03T18:42:03.640Z,47.86
2022-10-03T18:44:36.459Z,47.97
2022-10-03T18:47:26.182Z,48.08
2022-10-03T18:50:06.111Z,48.05
2022-10-03T18:52:46.584Z,48.02
2022-10-03T18:55:21.004Z,48.12
2022-10-03T18:57:57.814Z,48.49
2022-10-03T19:00:31.460Z,48.81
2022-10-03T19:03:06.373Z,48.46
2022-10-03T19:05:40.474Z,48.95
2022-10-03T19:08:21.953Z,49.13
2022-10-03T19:10:55.186Z,49.02
2022-10-03T19:13:33.292Z,49.13
2022-10-03T19:16:19.484Z,49.42
2022-10-03T19:19:00.846Z,49.15
2022-10-03T19:21:31.060Z,49.28
2022-10-03T19:24:12.017Z,49.56
2022-10-03T19:26:46.854Z,49.55
2022-10-03T19:29:22.310Z,49.83
2022-10-03T19:32:00.778Z,50.07
2022-10-03T19:34:36.695Z,50.32
2022-10-03T19:37:14.104Z,50.55
2022-10-03T19:39:47.463Z,50.55
2022-10-03T19:42:28.522Z,50.85
2022-10-03T19:45:01.004Z,50.91
2022-10-03T19:47:34.723Z,50.90
2022-10-03T19:50:12.792Z,51.02
2022-10-03T19:52:43.268Z,51.26
2022-10-03T19:55:22.267Z,51.55
2022-10-03T19:57:55.073Z,51.57
2022-10-03T20:00:30.403Z,51.84
2022-10-03T20:03:09.603Z,51.63
2022-10-03T20:05:45.981Z,51.97
2022-10-03T20:08:25.779Z,52.01
2022-10-03T20:11:20.852Z,52.01
2022-10-03T20:13:52.060Z,52.16
2022-10-03T20:16:24.312Z,52.10
2022-10-03T20:18:57.100Z,52.19
2022-10-03T20:21:29.901Z,52.53
2022-10-03T20:24:01.255Z,52.72
2022-10-03T20:26:38.371Z,52.76
2022-10-03T20:29:27.863Z,52.79
2022-10-03T20:32:02.942Z,52.69
2022-10-03T20:34:34.046Z,53.08
2022-10-03T20:37:20.591Z,53.01
2022-10-03T20:39:52.430Z,52.91
2022-10-03T20:42:29.856Z,52.93
2022-10-03T20:45:06.809Z,53.11
2022-10-03T20:48:05.603Z,53.05
2022-10-03T20:50:37.919Z,53.35
2022-10-03T20:53:18.625Z,53.16
2022-10-03T20:55:53.649Z,53.44
2022-10-03T20:58:32.407Z,53.55
2022-10-03T21:01:07.111Z,53.28
2022-10-03T21:03:43.856Z,53.48
2022-10-03T21:06:22.138Z,53.52
2022-10-03T21:08:52.206Z,53.68
2022-10-03T21:11:26.003Z,53.77
2022-10-03T21:14:02.515Z,54.02
2022-10-03T21:16:36.256Z,53.74
2022-10-03T21:19:14.426Z,53.83
2022-10-03T21:21:52.895Z,53.63
2022-10-03T21:24:30.907Z,53.90
2022-10-03T21:27:05.433Z,53.85
2022-10-03T21:29:41.052Z,53.75
2022-10-03T21:32:26.867Z,53.94
2022-10-03T21:35:05.197Z,53.94
2022-10-03T21:37:47.171Z,53.97
2022-10-03T21:40:35.347Z,53.67
2022-10-03T21:43:15.001Z,53.81
2022-10-03T21:45:55.937Z,53.93
2022-10-03T21:48:35.366Z,53.87
2022-10-03T21:51:21.227Z,53.70
2022-10-03T21:53:59.570Z,53.77
2022-10-03T21:56:56.425Z,53.86
2022-10-03T21:59:45.585Z,53.90
2022-10-03T22:02:25.335Z,53.82
2022-10-03T22:05:03.137Z,53.88
2022-10-03T22:07:40.387Z,53.97
2022-10-03T22:10:22.532Z,53.84
2022-10-03T22:12:55.062Z,53.67
2022-10-03T22:15:41.421Z,53.96
2022-10-03T22:18:15.802Z,53.96
2022-10-03T22:20:56.106Z,54.01
2022-10-03T22:23:40.903Z,54.00
2022-10-03T22:26:22.290Z,53.91
2022-10-03T22:29:00.533Z,53.96
2022-10-03T22:31:35.227Z,53.88
2022-10-03T22:34:30.037Z,54.28
2022-10-03T22:37:00.138Z,53.98
2022-10-03T22:39:31.948Z,53.96
2022-10-03T22:42:03.380Z,54.08
2022-10-03T22:44:38.128Z,54.25
2022-10-03T22:47:12.910Z,54.22
2022-10-03T22:49:49.850Z,54.30
2022-10-03T22:52:24.247Z,54.10
2022-10-03T22:54:58.506Z,54.23
2022-10-03T22:57:30.890Z,54.30
2022-10-03T23:00:08.074Z,54.31
2022-10-03T23:02:42.347Z,54.44
2022-10-03T23:05:20.229Z,54.30
2022-10-03T23:08:02.695Z,54.34
2022-10-03T23:10:43.025Z,54.41
2022-10-03T23:13:20.469Z,54.14
2022-10-03T23:15:54.576Z,54.15
2022-10-03T23:18:41.874Z,54.29
2022-10-03T23:21:15.392Z,54.46
2022-10-03T23:24:02.151Z,54.54
2022-10-03T23:26:50.310Z,54.25
2022-10-03T23:29:21.130Z,54.33
2022-10-03T23:31:58.927Z,54.21
2022-10-03T23:34:50.990Z,54.35
2022-10-03T23:37:45.347Z,54.50
2022-10-03T23:40:31.560Z,54.35
2022-10-03T23:43:05.865Z,54.69
2022-10-03T23:45:38.027Z,54.62
2022-10-03T23:48:10.254Z,54.62
2022-10-03T23:50:45.658Z,54.47
2022-10-03T23:53:27.529Z,54.41
2022-10-03T23:55:59.601Z,54.45
2022-10-03T23:58:32.154Z,54.70
